createdAt,value
2022-11-16T00:02:13.109Z,9.93
2022-11-16T00:04:40.667Z,9.95
2022-11-16T00:07:08.481Z,9.10
2022-11-16T00:09:36.136Z,9.88
2022-11-16T00:12:07.298Z,9.93
2022-11-16T00:14:36.523Z,9.10
2022-11-16T00:17:04.948Z,9.60
2022-11-16T00:19:32.865Z,8.38
2022-11-16T00:22:00.443Z,8.52
2022-11-16T00:24:27.930Z,9.00
2022-11-16T00:26:56.368Z,8.52
2022-11-16T00:29:26.296Z,8.18
2022-11-16T00:31:54.703Z,8.85
2022-11-16T00:34:23.264Z,8.73
2022-11-16T00:36:51.161Z,8.98
2022-11-16T00:39:19.720Z,9.73
2022-11-16T00:41:48.327Z,8.18
2022-11-16T00:44:16.174Z,8.30
2022-11-16T00:46:43.847Z,7.82
2022-11-16T00:49:11.700Z,8.60
2022-11-16T00:51:39.523Z,9.13
2022-11-16T00:54:08.177Z,8.32
2022-11-16T00:56:36.385Z,7.60
2022-11-16T00:59:04.297Z,7.57
2022-11-16T01:01:31.930Z,8.27
2022-11-16T01:03:59.480Z,9.20
2022-11-16T01:06:26.961Z,8.50
2022-11-16T01:08:54.470Z,8.38
2022-11-16T01:11:41.819Z,8.30
2022-11-16T01:14:10.244Z,9.82
2022-11-16T01:16:38.140Z,8.82
2022-11-16T01:19:06.108Z,9.20
2022-11-16T01:21:34.737Z,9.02
2022-11-16T01:24:02.248Z,8.93
2022-11-16T01:26:29.789Z,8.52
2022-11-16T01:28:59.783Z,9.10
2022-11-16T01:31:27.290Z,8.90
2022-11-16T01:33:55.850Z,8.98
2022-11-16T01:36:23.643Z,9.07
2022-11-16T01:38:51.129Z,9.23
2022-11-16T01:41:24.790Z,8.60
2022-11-16T01:43:54.693Z,9.07
2022-11-16T01:46:22.759Z,9.90
2022-11-16T01:48:55.498Z,9.02
2022-11-16T01:51:24.075Z,8.70
2022-11-16T01:53:52.102Z,9.48
2022-11-16T01:56:19.756Z,9.13
2022-11-16T01:58:47.760Z,9.95
2022-11-16T02:01:15.401Z,9.43
2022-11-16T02:03:42.905Z,10.45
2022-11-16T02:06:31.566Z,9.73
2022-11-16T02:09:36.136Z,9.52
2022-11-16T02:12:41.845Z,9.68
2022-11-16T02:15:38.496Z,10.80
2022-11-16T02:18:34.885Z,10.45
2022-11-16T02:21:12.551Z,9.82
2022-11-16T02:24:01.279Z,9.60
2022-11-16T02:27:06.187Z,9.80
2022-11-16T02:29:38.429Z,10.20
2022-11-16T02:32:21.455Z,9.32
2022-11-16T02:35:08.510Z,11.75
2022-11-16T02:37:40.775Z,10.57
2022-11-16T02:43:03.173Z,11.25
2022-11-16T02:45:36.367Z,10.77
2022-11-16T02:48:15.347Z,10.30
2022-11-16T02:50:44.824Z,11.30
2022-11-16T02:53:12.347Z,13.15
2022-11-16T02:55:39.806Z,11.63
2022-11-16T02:58:10.678Z,11.15
2022-11-16T03:00:49.941Z,12.00
2022-11-16T03:03:29.960Z,11.25
2022-11-16T03:06:04.969Z,11.80
2022-11-16T03:08:37.141Z,12.90
2022-11-16T03:11:27.259Z,11.93
2022-11-16T03:13:59.905Z,13.00
2022-11-16T03:16:37.834Z,12.85
2022-11-16T03:19:11.444Z,12.38
2022-11-16T03:21:42.556Z,11.88
2022-11-16T03:24:10.536Z,12.05
2022-11-16T03:26:54.401Z,12.18
2022-11-16T03:29:30.349Z,11.15
2022-11-16T03:32:04.080Z,10.48
2022-11-16T03:34:36.179Z,10.02
2022-11-16T03:37:05.045Z,11.25
2022-11-16T03:39:36.701Z,10.40
2022-11-16T03:42:13.929Z,8.98
2022-11-16T03:44:43.245Z,7.97
2022-11-16T03:47:10.736Z,8.52
2022-11-16T03:49:38.205Z,7.35
2022-11-16T03:52:06.405Z,7.38
2022-11-16T03:54:33.952Z,6.40
2022-11-16T03:57:01.576Z,5.70
2022-11-16T03:59:29.017Z,5.72
2022-11-16T04:01:56.477Z,6.47
2022-11-16T04:04:41.428Z,5.32
2022-11-16T04:07:28.021Z,5.90
2022-11-16T04:10:12.990Z,4.93
2022-11-16T04:13:02.362Z,5.43
2022-11-16T04:15:47.342Z,4.93
2022-11-16T04:18:32.452Z,5.60
2022-11-16T04:21:17.804Z,4.90
2022-11-16T04:24:04.517Z,5.03
2022-11-16T04:26:46.081Z,5.95
2022-11-16T04:29:14.861Z,4.03
2022-11-16T04:31:59.945Z,6.20
2022-11-16T04:34:45.228Z,4.88
2022-11-16T04:37:32.882Z,5.80
2022-11-16T04:40:00.338Z,5.15
2022-11-16T04:42:27.799Z,5.40
2022-11-16T04:45:12.757Z,5.00
2022-11-16T04:47:40.307Z,4.90
2022-11-16T04:50:08.241Z,4.88
2022-11-16T04:52:35.723Z,6.70
2022-11-16T04:55:03.367Z,6.90
2022-11-16T04:57:30.812Z,6.28
2022-11-16T04:59:58.319Z,5.85
2022-11-16T05:02:25.813Z,6.05
2022-11-16T05:04:53.277Z,6.50
2022-11-16T05:07:20.874Z,7.35
2022-11-16T05:09:49.693Z,6.53
2022-11-16T05:12:18.300Z,6.68
2022-11-16T05:14:46.795Z,6.95
2022-11-16T05:17:15.519Z,6.90
2022-11-16T05:20:00.600Z,7.00
2022-11-16T05:22:28.076Z,7.25
2022-11-16T05:24:55.714Z,7.28
2022-11-16T05:27:25.224Z,7.57
2022-11-16T05:29:52.773Z,6.95
2022-11-16T05:32:21.556Z,7.82
2022-11-16T05:34:49.625Z,6.82
2022-11-16T05:37:19.081Z,8.82
2022-11-16T05:39:46.525Z,9.57
2022-11-16T05:42:14.131Z,7.35
2022-11-16T05:44:41.582Z,7.22
2022-11-16T05:47:09.062Z,7.32
2022-11-16T05:49:36.536Z,8.55
2022-11-16T05:52:04.150Z,7.60
2022-11-16T05:54:31.678Z,8.55
2022-11-16T05:56:59.206Z,8.05
2022-11-16T05:59:27.707Z,6.65
2022-11-16T06:01:55.204Z,8.05
2022-11-16T06:04:24.345Z,7.05
2022-11-16T06:06:52.385Z,8.00
2022-11-16T06:09:20.076Z,7.30
2022-11-16T06:11:47.592Z,7.20
2022-11-16T06:14:15.102Z,7.43
2022-11-16T06:16:42.628Z,7.03
2022-11-16T06:19:10.101Z,6.15
2022-11-16T06:21:37.547Z,6.22
2022-11-16T06:24:08.886Z,4.85
2022-11-16T06:26:37.329Z,5.23
2022-11-16T06:29:05.315Z,6.18
2022-11-16T06:31:33.121Z,5.28
2022-11-16T06:34:00.682Z,6.28
2022-11-16T06:36:28.191Z,6.32
2022-11-16T06:38:55.662Z,7.43
2022-11-16T06:41:23.314Z,7.30
2022-11-16T06:43:50.784Z,7.60
2022-11-16T06:46:18.324Z,7.72
2022-11-16T06:48:45.828Z,8.05
2022-11-16T06:51:13.302Z,7.05
2022-11-16T06:53:40.821Z,8.63
2022-11-16T06:56:08.771Z,7.95
2022-11-16T06:58:36.643Z,6.32
2022-11-16T07:01:09.356Z,6.70
2022-11-16T07:06:09.002Z,9.07
2022-11-16T07:08:36.785Z,5.95
2022-11-16T07:11:08.662Z,7.13
2022-11-16T07:13:37.961Z,6.47
2022-11-16T07:16:07.098Z,5.90
2022-11-16T07:18:36.773Z,6.65
2022-11-16T07:21:13.335Z,6.28
2022-11-16T07:23:41.086Z,7.07
2022-11-16T07:26:09.559Z,6.22
2022-11-16T07:28:37.893Z,6.13
2022-11-16T07:31:09.342Z,5.50
2022-11-16T07:33:37.481Z,4.80
2022-11-16T07:36:16.644Z,5.60
2022-11-16T07:38:44.297Z,5.30
2022-11-16T07:41:16.714Z,4.70
2022-11-16T07:46:45.958Z,3.55
2022-11-16T07:49:11.497Z,3.15
2022-11-16T07:51:39.461Z,2.72
2022-11-16T07:54:07.217Z,2.78
2022-11-16T07:56:34.749Z,4.13
2022-11-16T07:59:02.389Z,3.47
2022-11-16T08:01:30.031Z,4.10
2022-11-16T08:03:57.588Z,2.35
2022-11-16T08:06:27.108Z,3.13
2022-11-16T08:08:58.290Z,2.28
2022-11-16T08:11:26.903Z,2.70
2022-11-16T08:13:54.603Z,2.20
2022-11-16T08:16:23.780Z,2.40
2022-11-16T08:18:51.664Z,2.00
2022-11-16T08:21:19.982Z,2.55
2022-11-16T08:23:47.853Z,1.73
2022-11-16T08:26:22.025Z,2.40
2022-11-16T08:28:53.652Z,2.00
2022-11-16T08:31:24.007Z,2.33
2022-11-16T08:33:51.989Z,2.92
2022-11-16T08:36:20.116Z,1.80
2022-11-16T08:38:49.393Z,2.22
2022-11-16T08:41:18.140Z,2.22
2022-11-16T08:43:47.150Z,2.63
2022-11-16T08:46:15.736Z,1.90
2022-11-16T08:48:43.382Z,2.05
2022-11-16T08:51:18.437Z,1.95
2022-11-16T08:53:48.384Z,2.70
2022-11-16T08:56:17.954Z,2.28
2022-11-16T08:58:47.139Z,1.98
2022-11-16T09:01:19.861Z,1.58
2022-11-16T09:03:47.862Z,2.25
2022-11-16T09:06:15.815Z,2.45
2022-11-16T09:08:45.886Z,2.10
2022-11-16T09:11:16.741Z,2.72
2022-11-16T09:13:45.659Z,2.38
2022-11-16T09:16:15.819Z,1.67
2022-11-16T09:18:45.566Z,2.10
2022-11-16T09:21:13.074Z,5.30
2022-11-16T09:23:40.530Z,1.77
2022-11-16T09:26:08.091Z,2.05
2022-11-16T09:28:35.809Z,2.83
2022-11-16T09:31:06.095Z,2.28
2022-11-16T09:33:35.373Z,1.50
2022-11-16T09:36:07.137Z,3.03
2022-11-16T09:39:13.970Z,2.53
2022-11-16T09:42:08.249Z,2.03
2022-11-16T09:44:57.455Z,1.60
2022-11-16T09:47:35.481Z,2.55
2022-11-16T09:50:06.297Z,2.30
2022-11-16T09:52:45.872Z,1.80
2022-11-16T09:55:37.767Z,1.60
2022-11-16T09:58:13.829Z,1.52
2022-11-16T10:00:48.029Z,2.03
2022-11-16T10:03:16.338Z,1.48
2022-11-16T10:06:02.819Z,2.20
2022-11-16T10:08:43.920Z,1.80
2022-11-16T10:11:31.468Z,1.95
2022-11-16T10:14:23.199Z,1.40
2022-11-16T10:16:55.405Z,1.60
2022-11-16T10:22:32.179Z,1.40
2022-11-16T10:25:02.741Z,1.20
2022-11-16T10:27:48.793Z,1.50
2022-11-16T10:30:22.090Z,1.00
2022-11-16T10:33:06.693Z,1.60
2022-11-16T10:35:46.874Z,0.85
2022-11-16T10:38:17.025Z,1.00
2022-11-16T10:40:48.550Z,1.10
2022-11-16T10:43:19.076Z,1.40
2022-11-16T10:45:52.815Z,1.75
2022-11-16T10:48:46.616Z,0.90
2022-11-16T10:51:14.099Z,0.82
2022-11-16T10:53:43.800Z,0.70
2022-11-16T10:56:37.303Z,1.40
2022-11-16T10:59:07.439Z,1.35
2022-11-16T11:01:42.292Z,1.90
2022-11-16T11:04:29.959Z,0.80
2022-11-16T11:07:02.825Z,0.80
2022-11-16T11:09:41.706Z,0.85
2022-11-16T11:12:39.353Z,0.90
2022-11-16T11:15:13.349Z,0.98
2022-11-16T11:17:43.911Z,1.05
2022-11-16T11:20:17.699Z,0.95
2022-11-16T11:23:25.925Z,0.90
2022-11-16T11:26:01.263Z,0.82
2022-11-16T11:28:31.903Z,1.50
2022-11-16T11:31:03.780Z,1.25
2022-11-16T11:33:36.513Z,1.30
2022-11-16T11:36:21.519Z,1.00
2022-11-16T11:39:13.491Z,0.80
2022-11-16T11:41:43.761Z,2.20
2022-11-16T11:44:14.315Z,1.10
2022-11-16T11:47:35.291Z,2.50
2022-11-16T11:49:49.825Z,1.00
2022-11-16T11:52:43.608Z,1.00
2022-11-16T11:55:18.569Z,1.05
2022-11-16T11:57:48.757Z,1.90
2022-11-16T12:00:18.111Z,1.25
2022-11-16T12:03:10.086Z,1.42
2022-11-16T12:05:56.726Z,1.40
2022-11-16T12:08:54.657Z,1.08
2022-11-16T12:11:28.205Z,1.33
2022-11-16T12:14:26.166Z,1.13
2022-11-16T12:17:18.621Z,1.05
2022-11-16T12:20:29.088Z,1.05
2022-11-16T12:23:08.684Z,1.23
2022-11-16T12:26:12.755Z,0.77
2022-11-16T12:28:58.993Z,0.82
2022-11-16T12:31:54.853Z,0.93
2022-11-16T12:34:53.362Z,2.00
2022-11-16T12:37:42.190Z,1.10
2022-11-16T12:40:34.572Z,0.98
2022-11-16T12:43:20.811Z,1.08
2022-11-16T12:46:02.093Z,0.90
2022-11-16T12:48:54.061Z,0.80
2022-11-16T12:51:37.890Z,0.98
2022-11-16T12:54:32.628Z,0.70
2022-11-16T12:57:05.893Z,1.00
2022-11-16T12:59:51.169Z,0.82
2022-11-16T13:02:39.916Z,0.90
2022-11-16T13:05:18.090Z,1.10
2022-11-16T13:07:49.982Z,0.82
2022-11-16T13:10:22.199Z,0.93
2022-11-16T13:13:09.006Z,0.80
2022-11-16T13:15:46.199Z,1.00
2022-11-16T13:18:18.209Z,0.52
2022-11-16T13:20:51.893Z,0.82
2022-11-16T13:23:38.385Z,0.70
2022-11-16T13:26:24.013Z,0.80
2022-11-16T13:29:26.820Z,1.00
2022-11-16T13:34:32.491Z,0.57
2022-11-16T13:36:59.937Z,1.23
2022-11-16T13:39:59.624Z,0.90
2022-11-16T13:42:27.835Z,0.80
2022-11-16T13:45:08.203Z,0.70
2022-11-16T13:47:36.656Z,1.40
2022-11-16T13:50:08.084Z,0.90
2022-11-16T13:53:36.547Z,0.70
2022-11-16T13:55:34.774Z,1.00
2022-11-16T13:58:05.373Z,0.90
2022-11-16T14:00:33.378Z,0.80
2022-11-16T14:03:13.186Z,0.63
2022-11-16T14:05:49.257Z,0.50
2022-11-16T14:08:25.516Z,0.73
2022-11-16T14:10:52.955Z,0.60
2022-11-16T14:13:45.583Z,1.75
2022-11-16T14:18:45.558Z,0.90
2022-11-16T14:21:16.309Z,0.90
2022-11-16T14:24:01.982Z,0.85
2022-11-16T14:26:43.350Z,0.70
2022-11-16T14:29:23.259Z,1.05
2022-11-16T14:31:56.799Z,1.45
2022-11-16T14:34:49.795Z,0.95
2022-11-16T14:37:24.373Z,0.70
2022-11-16T14:39:58.384Z,0.77
2022-11-16T14:42:38.201Z,0.80
2022-11-16T14:45:25.733Z,1.02
2022-11-16T14:48:00.049Z,1.20
2022-11-16T14:50:30.151Z,0.98
2022-11-16T14:53:02.824Z,0.80
2022-11-16T14:55:30.705Z,1.00
2022-11-16T14:58:24.639Z,1.70
2022-11-16T15:01:02.312Z,1.17
2022-11-16T15:03:34.768Z,0.93
2022-11-16T15:06:04.891Z,0.90
2022-11-16T15:08:36.400Z,1.20
2022-11-16T15:11:03.945Z,0.75
2022-11-16T15:13:31.709Z,1.23
2022-11-16T15:16:19.956Z,1.25
2022-11-16T15:18:58.275Z,3.33
2022-11-16T15:21:26.123Z,1.08
2022-11-16T15:24:23.352Z,1.63
2022-11-16T15:26:41.124Z,1.20
2022-11-16T15:29:21.481Z,2.03
2022-11-16T15:31:50.028Z,1.08
2022-11-16T15:34:19.558Z,0.90
2022-11-16T15:36:47.930Z,0.80
2022-11-16T15:39:21.471Z,0.90
2022-11-16T15:41:50.011Z,1.20
2022-11-16T15:44:21.019Z,1.45
2022-11-16T15:46:52.735Z,0.98
2022-11-16T15:49:41.900Z,1.60
2022-11-16T15:52:10.355Z,1.58
2022-11-16T15:54:52.548Z,1.00
2022-11-16T15:57:21.926Z,1.70
2022-11-16T15:59:51.618Z,2.00
2022-11-16T16:02:21.445Z,3.85
2022-11-16T16:04:48.984Z,2.38
2022-11-16T16:07:44.825Z,3.50
2022-11-16T16:10:21.579Z,3.30
2022-11-16T16:12:52.264Z,1.70
2022-11-16T16:15:36.803Z,1.30
2022-11-16T16:18:12.501Z,1.95
2022-11-16T16:20:40.078Z,2.20
2022-11-16T16:23:15.200Z,2.60
2022-11-16T16:25:47.520Z,1.50
2022-11-16T16:28:17.689Z,1.20
2022-11-16T16:30:45.232Z,1.20
2022-11-16T16:33:19.622Z,2.00
2022-11-16T16:35:49.765Z,10.05
2022-11-16T16:38:17.347Z,5.28
2022-11-16T16:40:44.886Z,4.55
2022-11-16T16:43:12.412Z,7.00
2022-11-16T16:45:43.448Z,8.02
2022-11-16T16:48:12.620Z,6.75
2022-11-16T16:50:41.015Z,5.80
2022-11-16T16:53:13.169Z,5.10
2022-11-16T16:55:40.920Z,2.70
2022-11-16T16:58:08.509Z,2.65
2022-11-16T17:00:36.054Z,2.47
2022-11-16T17:03:03.523Z,2.10
2022-11-16T17:05:33.840Z,1.52
2022-11-16T17:08:02.192Z,2.78
2022-11-16T17:10:29.672Z,2.45
2022-11-16T17:12:58.264Z,2.35
2022-11-16T17:15:26.227Z,1.65
2022-11-16T17:17:53.796Z,2.17
2022-11-16T17:20:21.314Z,3.60
2022-11-16T17:22:48.784Z,2.03
2022-11-16T17:25:16.289Z,2.60
2022-11-16T17:27:43.747Z,2.30
2022-11-16T17:30:11.974Z,2.95
2022-11-16T17:32:39.460Z,3.75
2022-11-16T17:35:07.118Z,1.95
2022-11-16T17:37:34.558Z,3.80
2022-11-16T17:40:02.048Z,2.08
2022-11-16T17:42:29.498Z,2.50
2022-11-16T17:44:56.948Z,1.98
2022-11-16T17:47:24.402Z,2.90
2022-11-16T17:49:51.893Z,2.28
2022-11-16T17:52:19.375Z,1.52
2022-11-16T17:54:46.817Z,2.30
2022-11-16T17:57:14.312Z,2.67
2022-11-16T17:59:41.878Z,1.40
2022-11-16T18:02:12.393Z,1.90
2022-11-16T18:04:39.965Z,7.03
2022-11-16T18:07:07.480Z,1.95
2022-11-16T18:09:35.150Z,1.50
2022-11-16T18:12:02.700Z,2.90
2022-11-16T18:14:31.282Z,2.58
2022-11-16T18:16:58.769Z,1.48
2022-11-16T18:19:26.260Z,3.67
2022-11-16T18:21:53.670Z,3.38
2022-11-16T18:24:21.100Z,1.73
2022-11-16T18:26:48.530Z,1.30
2022-11-16T18:29:18.590Z,2.22
2022-11-16T18:31:46.046Z,1.55
2022-11-16T18:34:15.245Z,1.42
2022-11-16T18:36:42.722Z,1.70
2022-11-16T18:39:10.197Z,1.30
2022-11-16T18:41:38.229Z,2.15
2022-11-16T18:44:06.209Z,1.50
2022-11-16T18:46:34.098Z,2.17
2022-11-16T18:49:01.679Z,1.80
2022-11-16T18:51:30.005Z,2.05
2022-11-16T18:53:57.705Z,1.90
2022-11-16T18:56:25.719Z,1.45
2022-11-16T18:58:53.793Z,2.03
2022-11-16T19:01:24.504Z,3.03
2022-11-16T19:03:53.752Z,1.55
2022-11-16T19:06:22.189Z,1.73
2022-11-16T19:08:56.318Z,2.17
2022-11-16T19:11:24.893Z,2.38
2022-11-16T19:13:59.963Z,1.50
2022-11-16T19:16:27.819Z,1.30
2022-11-16T19:18:55.259Z,1.48
2022-11-16T19:21:23.303Z,1.23
2022-11-16T19:23:55.546Z,1.38
2022-11-16T19:26:25.798Z,1.60
2022-11-16T19:28:54.592Z,1.98
2022-11-16T19:31:30.241Z,1.48
2022-11-16T19:34:00.178Z,2.28
2022-11-16T19:36:28.991Z,1.13
2022-11-16T19:38:56.935Z,1.10
2022-11-16T19:41:25.598Z,1.83
2022-11-16T19:43:57.208Z,1.23
2022-11-16T19:46:25.389Z,1.38
2022-11-16T19:48:53.662Z,0.93
2022-11-16T19:51:26.632Z,0.85
2022-11-16T19:53:54.716Z,1.33
2022-11-16T19:56:23.992Z,1.50
2022-11-16T19:58:52.390Z,1.02
2022-11-16T20:01:29.257Z,1.15
2022-11-16T20:04:02.151Z,0.73
2022-11-16T20:06:32.394Z,1.20
2022-11-16T20:09:03.888Z,1.20
2022-11-16T20:11:33.792Z,1.10
2022-11-16T20:14:02.505Z,1.05
2022-11-16T20:16:38.328Z,1.30
2022-11-16T20:19:08.163Z,1.08
2022-11-16T20:21:40.570Z,1.50
2022-11-16T20:26:41.385Z,0.98
2022-11-16T20:29:12.262Z,1.30
2022-11-16T20:31:42.497Z,1.10
2022-11-16T20:34:14.744Z,0.90
2022-11-16T20:36:44.397Z,1.35
2022-11-16T20:39:22.076Z,1.33
2022-11-16T20:41:49.730Z,1.35
2022-11-16T20:44:21.138Z,0.90
2022-11-16T20:46:50.532Z,0.87
2022-11-16T20:49:18.069Z,1.10
2022-11-16T20:51:47.630Z,1.48
2022-11-16T20:54:15.400Z,1.50
2022-11-16T20:56:44.389Z,1.23
2022-11-16T20:59:11.870Z,1.13
2022-11-16T21:01:41.488Z,1.05
2022-11-16T21:04:10.798Z,1.05
2022-11-16T21:06:38.363Z,1.15
2022-11-16T21:09:05.910Z,0.93
2022-11-16T21:11:54.773Z,1.10
2022-11-16T21:14:22.613Z,1.15
2022-11-16T21:16:50.308Z,0.90
2022-11-16T21:19:17.928Z,0.85
2022-11-16T21:21:45.421Z,0.90
2022-11-16T21:24:12.956Z,0.57
2022-11-16T21:26:40.515Z,0.82
2022-11-16T21:29:08.049Z,0.73
2022-11-16T21:31:37.318Z,1.35
2022-11-16T21:34:05.819Z,0.73
2022-11-16T21:36:33.856Z,1.13
2022-11-16T21:39:01.506Z,0.60
2022-11-16T21:41:29.318Z,1.13
2022-11-16T21:43:57.230Z,0.50
2022-11-16T21:46:26.443Z,0.90
2022-11-16T21:48:56.396Z,0.70
2022-11-16T21:51:27.352Z,1.23
2022-11-16T21:53:55.267Z,0.95
2022-11-16T21:56:25.088Z,0.43
2022-11-16T21:58:53.772Z,0.68
2022-11-16T22:01:22.156Z,0.73
2022-11-16T22:04:10.458Z,0.90
2022-11-16T22:06:55.390Z,0.95
2022-11-16T22:09:23.094Z,0.60
2022-11-16T22:11:50.573Z,0.73
2022-11-16T22:14:18.076Z,1.40
2022-11-16T22:16:45.672Z,1.20
2022-11-16T22:19:13.215Z,0.60
2022-11-16T22:21:40.682Z,1.02
2022-11-16T22:24:08.510Z,0.70
2022-11-16T22:26:37.906Z,0.50
2022-11-16T22:29:05.417Z,0.80
2022-11-16T22:31:32.999Z,0.60
2022-11-16T22:34:00.494Z,0.85
2022-11-16T22:36:27.958Z,1.00
2022-11-16T22:38:57.043Z,0.40
2022-11-16T22:41:24.548Z,0.75
2022-11-16T22:43:52.042Z,0.93
2022-11-16T22:46:19.547Z,1.45
2022-11-16T22:48:47.852Z,1.15
2022-11-16T22:51:22.584Z,1.25
2022-11-16T22:54:00.576Z,1.30
2022-11-16T22:56:29.781Z,1.10
2022-11-16T22:58:57.606Z,1.00
2022-11-16T23:01:25.745Z,1.10
2022-11-16T23:03:53.321Z,0.90
2022-11-16T23:06:21.275Z,1.13
2022-11-16T23:08:49.374Z,1.17
2022-11-16T23:11:37.125Z,1.08
2022-11-16T23:14:22.777Z,0.60
2022-11-16T23:16:51.009Z,1.58
2022-11-16T23:19:37.995Z,1.13
2022-11-16T23:22:24.385Z,1.30
2022-11-16T23:25:09.792Z,1.20
2022-11-16T23:27:56.166Z,1.75
2022-11-16T23:30:24.305Z,1.40
2022-11-16T23:32:52.331Z,1.27
2022-11-16T23:35:20.023Z,1.48
2022-11-16T23:37:54.486Z,1.80
2022-11-16T23:40:24.427Z,3.05
2022-11-16T23:43:07.406Z,1.30
2022-11-16T23:45:35.001Z,0.57
2022-11-16T23:48:02.550Z,1.25
2022-11-16T23:50:30.075Z,1.42
2022-11-16T23:52:57.546Z,2.08
2022-11-16T23:55:25.035Z,1.10
2022-11-16T23:57:52.509Z,0.90
